Martins Creek, Pennsylvania
Current Conditions -  °F | °C
As of 10:51 AM on Sunday 23 Nov 2014 (Local Time) from KABE Reporting Station
Overcast Overcast  
Wind Chill: 49°   Ceiling: 11000
Heat Index: 49°   Visibility: 10mi
Dew Point: 21°   Wind: 0mph
Humidity: 33%   Direction: NA
Pressure: 30.19"   Gusts: NA
Location:  40.78°N, 75.19°W
Report Text: KABE 231551Z 00000KT 10SM FEW080 OVC110 09/M06 A3019 RMK AO2 SLP226 T00941061
Loading
Personal Weather Stations






























Interactive Weather Map New forecast layout! Learn more

10-Day Weather Forecast

Advertisements
Track Severe Weather on mobile